Time;durP1;ratioP1;P1;durP2;ratioP2;P2;SDS_P1;SDS_P2;PMS_P1;PMS_P2;Temp;Humidity;BMP_temperature;BMP_pressure;BME280_temperature;BME280_humidity;BME280_pressure;Samples;Min_cycle;Max_cycle;Signal;HPM_P1;HPM_P2
2022/09/19 00:01:25;;;;;;;0.50;0.50;;;;;;;;;;5033636;28;20037;-82
2022/09/19 00:03:55;;;;;;;0.63;0.60;;;;;;;;;;5033322;28;20390;-82
2022/09/19 00:06:21;;;;;;;0.20;0.20;;;;;;;;;;5033655;28;20033;-82
2022/09/19 00:08:46;;;;;;;0.30;0.30;;;;;;;;;;5033512;28;20579;-82
2022/09/19 00:11:12;;;;;;;0.40;0.40;;;;;;;;;;5033379;28;20074;-82
2022/09/19 00:13:45;;;;;;;0.50;0.50;;;;;;;;;;5034224;28;20108;-82
2022/09/19 00:16:24;;;;;;;0.40;0.40;;;;;;;;;;5033742;28;20171;-82
2022/09/19 00:18:50;;;;;;;0.40;0.40;;;;;;;;;;5033394;28;20022;-82
2022/09/19 00:21:22;;;;;;;0.40;0.40;;;;;;;;;;5034451;28;20020;-82
2022/09/19 00:26:32;;;;;;;0.52;0.40;;;;;;;;;;5034630;28;20032;-82
2022/09/19 00:28:58;;;;;;;0.55;0.55;;;;;;;;;;5034326;28;20017;-82
2022/09/19 00:31:23;;;;;;;0.30;0.30;;;;;;;;;;5033191;28;20021;-82
2022/09/19 00:33:49;;;;;;;0.20;0.20;;;;;;;;;;5032862;28;20018;-82
2022/09/19 00:36:15;;;;;;;0.55;0.38;;;;;;;;;;5033049;28;20485;-82
2022/09/19 00:38:41;;;;;;;0.30;0.30;;;;;;;;;;5032814;28;20481;-82
2022/09/19 00:41:07;;;;;;;0.30;0.30;;;;;;;;;;5033332;28;20017;-82
2022/09/19 00:44:05;;;;;;;1.45;1.35;;;;;;;;;;5032885;28;20072;-82
2022/09/19 00:46:32;;;;;;;0.45;0.45;;;;;;;;;;5021504;28;20034;-82
2022/09/19 00:49:13;;;;;;;0.30;0.30;;;;;;;;;;5032789;28;20026;-82
2022/09/19 00:51:43;;;;;;;1.85;0.40;;;;;;;;;;5033245;28;20449;-82
2022/09/19 00:54:12;;;;;;;0.40;0.40;;;;;;;;;;5032528;28;20018;-82
2022/09/19 00:56:40;;;;;;;0.40;0.40;;;;;;;;;;5032510;28;20055;-82
2022/09/19 00:59:06;;;;;;;0.70;0.70;;;;;;;;;;5032491;28;20112;-82
2022/09/19 01:01:31;;;;;;;0.90;0.75;;;;;;;;;;5032460;28;20064;-82
2022/09/19 01:03:56;;;;;;;0.55;0.55;;;;;;;;;;5032259;28;20077;-83
2022/09/19 01:06:35;;;;;;;0.40;0.40;;;;;;;;;;5032279;28;20069;-82
2022/09/19 01:09:00;;;;;;;4.40;0.65;;;;;;;;;;5032722;28;20617;-82
2022/09/19 01:11:46;;;;;;;0.50;0.50;;;;;;;;;;5032226;28;20117;-82
2022/09/19 01:14:34;;;;;;;1.40;0.60;;;;;;;;;;5031694;28;20252;-82
2022/09/19 01:17:02;;;;;;;1.73;0.85;;;;;;;;;;5022101;28;20026;-82
2022/09/19 01:19:45;;;;;;;0.50;0.50;;;;;;;;;;5032188;28;20040;-82
2022/09/19 01:22:31;;;;;;;0.50;0.50;;;;;;;;;;5032190;28;20017;-82
2022/09/19 01:25:11;;;;;;;0.45;0.45;;;;;;;;;;5032349;28;20561;-82
2022/09/19 01:27:52;;;;;;;0.40;0.40;;;;;;;;;;5032148;28;20024;-82
2022/09/19 01:30:17;;;;;;;0.90;0.60;;;;;;;;;;5031899;28;20022;-82
2022/09/19 01:32:51;;;;;;;0.40;0.40;;;;;;;;;;5031639;28;20109;-82
2022/09/19 01:35:20;;;;;;;0.90;0.50;;;;;;;;;;5031646;28;20025;-82
2022/09/19 01:37:50;;;;;;;1.13;0.50;;;;;;;;;;5032340;28;20021;-82
2022/09/19 01:40:16;;;;;;;11.70;0.50;;;;;;;;;;5032947;28;20017;-82
2022/09/19 01:42:55;;;;;;;0.55;0.30;;;;;;;;;;5031759;28;20022;-82
2022/09/19 01:45:21;;;;;;;0.25;0.25;;;;;;;;;;5032770;28;20026;-82
2022/09/19 01:48:01;;;;;;;0.30;0.30;;;;;;;;;;5031681;28;20416;-82
2022/09/19 01:50:26;;;;;;;0.30;0.30;;;;;;;;;;5031731;28;20033;-82
2022/09/19 01:52:59;;;;;;;0.40;0.40;;;;;;;;;;5032060;28;20014;-82
2022/09/19 01:55:31;;;;;;;0.25;0.25;;;;;;;;;;5031321;28;20089;-82
2022/09/19 01:57:57;;;;;;;0.20;0.20;;;;;;;;;;5031437;28;20504;-82
2022/09/19 02:00:24;;;;;;;0.20;0.20;;;;;;;;;;5032688;28;20021;-82
2022/09/19 02:03:05;;;;;;;0.47;0.32;;;;;;;;;;5031429;28;20021;-82
2022/09/19 02:05:41;;;;;;;0.30;0.30;;;;;;;;;;5032294;28;20055;-82
2022/09/19 02:08:11;;;;;;;0.28;0.28;;;;;;;;;;5031564;28;20024;-82
2022/09/19 02:10:54;;;;;;;0.68;0.38;;;;;;;;;;5031296;28;20022;-82
2022/09/19 02:13:23;;;;;;;0.40;0.40;;;;;;;;;;5031837;28;20389;-82
2022/09/19 02:15:50;;;;;;;0.63;0.60;;;;;;;;;;5031407;28;20021;-82
2022/09/19 02:18:31;;;;;;;0.38;0.38;;;;;;;;;;5031132;28;20115;-82
2022/09/19 02:21:03;;;;;;;0.30;0.30;;;;;;;;;;5031143;28;20116;-82
2022/09/19 02:23:30;;;;;;;0.40;0.40;;;;;;;;;;5031685;28;20389;-82
2022/09/19 02:25:56;;;;;;;0.63;0.47;;;;;;;;;;5031175;28;20030;-82
2022/09/19 02:28:25;;;;;;;0.35;0.35;;;;;;;;;;5031059;28;20068;-82
2022/09/19 02:30:51;;;;;;;0.63;0.63;;;;;;;;;;5031210;28;20021;-81
2022/09/19 02:33:16;;;;;;;0.30;0.30;;;;;;;;;;5031096;28;20018;-81
2022/09/19 02:35:46;;;;;;;0.40;0.40;;;;;;;;;;5031083;28;20030;-82
2022/09/19 02:38:11;;;;;;;3.17;0.65;;;;;;;;;;5033785;28;20021;-82
2022/09/19 02:40:40;;;;;;;0.25;0.25;;;;;;;;;;5035160;28;20079;-82
2022/09/19 02:43:06;;;;;;;1.10;0.30;;;;;;;;;;5035144;28;20021;-82
2022/09/19 02:45:45;;;;;;;0.75;0.60;;;;;;;;;;5034993;28;20030;-82
2022/09/19 02:48:32;;;;;;;3.50;0.45;;;;;;;;;;5036143;28;20021;-82
2022/09/19 02:51:05;;;;;;;0.30;0.30;;;;;;;;;;5036139;28;20021;-82
2022/09/19 02:53:42;;;;;;;0.40;0.40;;;;;;;;;;5035178;28;20024;-82
2022/09/19 02:56:13;;;;;;;0.40;0.40;;;;;;;;;;5034601;28;20041;-82
2022/09/19 02:58:45;;;;;;;0.50;0.50;;;;;;;;;;5035950;28;20021;-82
2022/09/19 03:01:14;;;;;;;0.45;0.45;;;;;;;;;;5035257;28;20022;-82
2022/09/19 03:06:28;;;;;;;0.40;0.40;;;;;;;;;;5036168;28;20040;-82
2022/09/19 03:08:54;;;;;;;0.30;0.30;;;;;;;;;;5034649;28;20523;-82
2022/09/19 03:11:22;;;;;;;0.40;0.30;;;;;;;;;;5035850;28;20022;-82
2022/09/19 03:13:47;;;;;;;0.40;0.40;;;;;;;;;;5034473;28;20018;-82
2022/09/19 03:16:15;;;;;;;0.30;0.30;;;;;;;;;;5035635;28;20075;-82
2022/09/19 03:18:42;;;;;;;0.52;0.52;;;;;;;;;;5034542;28;20025;-82
2022/09/19 03:21:09;;;;;;;0.32;0.32;;;;;;;;;;5034243;28;20029;-82
2022/09/19 03:23:35;;;;;;;0.40;0.40;;;;;;;;;;5034424;28;20469;-82
2022/09/19 03:26:01;;;;;;;0.25;0.25;;;;;;;;;;5034254;28;20032;-82
2022/09/19 03:28:27;;;;;;;0.30;0.30;;;;;;;;;;5035531;28;20022;-82
2022/09/19 03:30:56;;;;;;;0.40;0.40;;;;;;;;;;5034482;28;20035;-82
2022/09/19 03:33:22;;;;;;;0.28;0.28;;;;;;;;;;5034209;28;20386;-82
2022/09/19 03:35:48;;;;;;;0.30;0.30;;;;;;;;;;5033973;28;20033;-81
2022/09/19 03:38:13;;;;;;;0.50;0.50;;;;;;;;;;5033821;28;20022;-82
2022/09/19 03:40:38;;;;;;;0.30;0.30;;;;;;;;;;5034989;28;20017;-82
2022/09/19 03:43:05;;;;;;;0.50;0.50;;;;;;;;;;5034034;28;20017;-82
2022/09/19 03:45:30;;;;;;;0.40;0.40;;;;;;;;;;5035248;28;20104;-82
2022/09/19 03:47:56;;;;;;;0.43;0.43;;;;;;;;;;5035191;28;20063;-82
2022/09/19 03:50:21;;;;;;;0.30;0.30;;;;;;;;;;5032998;28;20132;-82
2022/09/19 03:52:48;;;;;;;0.50;0.50;;;;;;;;;;5035108;28;20013;-82
2022/09/19 03:55:14;;;;;;;0.57;0.35;;;;;;;;;;5034291;28;20120;-82
2022/09/19 03:57:39;;;;;;;1.35;1.05;;;;;;;;;;5034228;28;20064;-82
2022/09/19 04:00:06;;;;;;;0.43;0.43;;;;;;;;;;5033571;28;20032;-82
2022/09/19 04:02:32;;;;;;;0.85;0.50;;;;;;;;;;5033812;28;20026;-82
2022/09/19 04:04:57;;;;;;;0.50;0.50;;;;;;;;;;5033118;28;20049;-82
2022/09/19 04:07:22;;;;;;;1.55;0.60;;;;;;;;;;5033525;28;20021;-82
2022/09/19 04:09:48;;;;;;;0.30;0.30;;;;;;;;;;5033450;28;20447;-82
2022/09/19 04:12:13;;;;;;;1.65;0.40;;;;;;;;;;5033215;28;20033;-82
2022/09/19 04:14:39;;;;;;;0.60;0.50;;;;;;;;;;5033655;28;20041;-82
2022/09/19 04:17:07;;;;;;;0.30;0.30;;;;;;;;;;5033453;28;20025;-81
2022/09/19 04:19:32;;;;;;;0.68;0.57;;;;;;;;;;5033289;28;20029;-82
2022/09/19 04:22:01;;;;;;;0.20;0.20;;;;;;;;;;5033181;28;20022;-82
2022/09/19 04:24:29;;;;;;;0.30;0.30;;;;;;;;;;5033548;28;20021;-82
2022/09/19 04:26:54;;;;;;;0.50;0.50;;;;;;;;;;5034670;28;20036;-82
2022/09/19 04:29:20;;;;;;;0.30;0.30;;;;;;;;;;5033094;28;20018;-82
2022/09/19 04:31:45;;;;;;;0.20;0.20;;;;;;;;;;5033035;28;20505;-82
2022/09/19 04:34:14;;;;;;;0.73;0.73;;;;;;;;;;5032940;28;20028;-83
2022/09/19 04:36:39;;;;;;;1.05;0.40;;;;;;;;;;5033196;28;20428;-82
2022/09/19 04:39:06;;;;;;;2.47;0.45;;;;;;;;;;5032726;28;20026;-81
2022/09/19 04:41:35;;;;;;;3.28;0.50;;;;;;;;;;5034181;28;20052;-82
2022/09/19 04:44:01;;;;;;;0.85;0.60;;;;;;;;;;5032518;28;20022;-82
2022/09/19 04:46:26;;;;;;;0.40;0.40;;;;;;;;;;5032954;28;20025;-82
2022/09/19 04:48:52;;;;;;;0.38;0.38;;;;;;;;;;5033936;28;20025;-83
2022/09/19 04:51:18;;;;;;;0.88;0.40;;;;;;;;;;5032562;28;20116;-81
2022/09/19 04:53:43;;;;;;;0.30;0.30;;;;;;;;;;5033218;28;20021;-82
2022/09/19 04:56:10;;;;;;;0.20;0.20;;;;;;;;;;5032268;28;20465;-81
2022/09/19 04:58:37;;;;;;;0.30;0.30;;;;;;;;;;5032388;28;20255;-82
2022/09/19 05:01:03;;;;;;;0.30;0.30;;;;;;;;;;5032536;28;20077;-81
2022/09/19 05:03:30;;;;;;;0.50;0.50;;;;;;;;;;5032028;28;20120;-82
2022/09/19 05:05:56;;;;;;;0.50;0.50;;;;;;;;;;5032837;28;20022;-82
2022/09/19 05:08:25;;;;;;;0.20;0.20;;;;;;;;;;5032372;28;20386;-82
2022/09/19 05:10:54;;;;;;;0.70;0.30;;;;;;;;;;5032372;28;20490;-82
2022/09/19 05:13:19;;;;;;;0.40;0.32;;;;;;;;;;5032436;28;20021;-81
2022/09/19 05:15:44;;;;;;;0.57;0.45;;;;;;;;;;5032143;28;20561;-82
2022/09/19 05:18:10;;;;;;;0.20;0.20;;;;;;;;;;5032042;28;20024;-82
2022/09/19 05:20:36;;;;;;;1.98;0.65;;;;;;;;;;5032234;28;20018;-82
2022/09/19 05:23:02;;;;;;;0.52;0.50;;;;;;;;;;5032204;28;20497;-82
2022/09/19 05:25:28;;;;;;;0.47;0.40;;;;;;;;;;5032246;28;20057;-82
2022/09/19 05:27:55;;;;;;;0.30;0.30;;;;;;;;;;5031987;28;20017;-81
2022/09/19 05:30:24;;;;;;;0.10;0.10;;;;;;;;;;5031917;28;20017;-81
2022/09/19 05:32:53;;;;;;;0.32;0.32;;;;;;;;;;5031744;28;20030;-82
2022/09/19 05:35:18;;;;;;;0.20;0.20;;;;;;;;;;5032849;28;20033;-82
2022/09/19 05:37:45;;;;;;;0.45;0.30;;;;;;;;;;5031827;28;20024;-82
2022/09/19 05:40:11;;;;;;;7.80;1.08;;;;;;;;;;5031666;28;20029;-82
2022/09/19 05:42:41;;;;;;;0.30;0.30;;;;;;;;;;5031728;28;20481;-82
2022/09/19 05:45:10;;;;;;;3.30;0.60;;;;;;;;;;5031633;28;20112;-82
2022/09/19 05:47:39;;;;;;;6.70;1.38;;;;;;;;;;5047894;28;20021;-82
2022/09/19 05:50:07;;;;;;;1.75;0.30;;;;;;;;;;5051524;28;20116;-82
2022/09/19 05:55:17;;;;;;;0.88;0.25;;;;;;;;;;5052661;28;20075;-82
2022/09/19 05:57:42;;;;;;;0.30;0.30;;;;;;;;;;5052604;28;20036;-83
2022/09/19 06:00:07;;;;;;;0.30;0.20;;;;;;;;;;5051304;28;20750;-82
2022/09/19 06:02:39;;;;;;;0.63;0.30;;;;;;;;;;5051785;28;20082;-83
2022/09/19 06:05:07;;;;;;;0.20;0.20;;;;;;;;;;5051057;28;20057;-82
2022/09/19 06:07:33;;;;;;;2.35;0.30;;;;;;;;;;5051965;28;20397;-82
2022/09/19 06:09:58;;;;;;;0.63;0.30;;;;;;;;;;5051188;28;20029;-82
2022/09/19 06:12:24;;;;;;;0.28;0.28;;;;;;;;;;5050717;28;20339;-83
2022/09/19 06:14:49;;;;;;;0.93;0.50;;;;;;;;;;5052567;28;20032;-82
2022/09/19 06:17:16;;;;;;;0.40;0.30;;;;;;;;;;5051147;28;20028;-82
2022/09/19 06:19:41;;;;;;;0.05;0.05;;;;;;;;;;5051139;28;20643;-82
2022/09/19 06:22:06;;;;;;;0.40;0.30;;;;;;;;;;5051032;28;20017;-82
2022/09/19 06:24:32;;;;;;;0.73;0.50;;;;;;;;;;5051102;28;20259;-82
2022/09/19 06:26:57;;;;;;;0.20;0.20;;;;;;;;;;5050884;28;20634;-83
2022/09/19 06:29:22;;;;;;;1.47;0.27;;;;;;;;;;5052194;28;20254;-83
2022/09/19 06:31:48;;;;;;;0.40;0.30;;;;;;;;;;5050894;28;20260;-82
2022/09/19 06:34:14;;;;;;;0.10;0.10;;;;;;;;;;5052342;28;20017;-82
2022/09/19 06:36:39;;;;;;;0.32;0.30;;;;;;;;;;5051031;28;20283;-82
2022/09/19 06:39:05;;;;;;;0.10;0.10;;;;;;;;;;5050843;28;20401;-82
2022/09/19 06:41:31;;;;;;;1.15;0.20;;;;;;;;;;5050759;28;20041;-82
2022/09/19 06:43:57;;;;;;;1.25;0.13;;;;;;;;;;5050834;28;20036;-82
2022/09/19 06:46:22;;;;;;;0.68;0.63;;;;;;;;;;5050836;28;20029;-82
2022/09/19 06:48:48;;;;;;;2.13;0.87;;;;;;;;;;5051857;28;20013;-82
2022/09/19 06:51:14;;;;;;;0.05;0.05;;;;;;;;;;5051064;28;20480;-82
2022/09/19 06:53:39;;;;;;;0.13;0.13;;;;;;;;;;5051943;28;20072;-82
2022/09/19 06:56:04;;;;;;;0.30;0.20;;;;;;;;;;5050370;28;20424;-83
2022/09/19 06:58:30;;;;;;;2.03;0.70;;;;;;;;;;5050663;28;20021;-82
2022/09/19 07:00:55;;;;;;;5.00;0.20;;;;;;;;;;5050831;28;20028;-82
2022/09/19 07:03:20;;;;;;;0.70;0.03;;;;;;;;;;5050479;28;20108;-82
2022/09/19 07:05:47;;;;;;;0.17;0.15;;;;;;;;;;5050624;28;20126;-82
2022/09/19 07:08:13;;;;;;;0.08;0.08;;;;;;;;;;5050577;28;20025;-82
2022/09/19 07:10:39;;;;;;;0.40;0.40;;;;;;;;;;5050425;28;20103;-82
2022/09/19 07:13:05;;;;;;;0.20;0.20;;;;;;;;;;5050557;28;20044;-82
2022/09/19 07:15:31;;;;;;;0.15;0.15;;;;;;;;;;5050442;28;20473;-82
2022/09/19 07:17:57;;;;;;;0.13;0.10;;;;;;;;;;5049727;28;20025;-83
2022/09/19 07:20:23;;;;;;;0.10;0.10;;;;;;;;;;5050624;28;20483;-82
2022/09/19 07:22:59;;;;;;;0.10;0.10;;;;;;;;;;5050193;28;20025;-82
2022/09/19 07:25:24;;;;;;;2.22;0.40;;;;;;;;;;5053374;28;20021;-82
2022/09/19 07:27:56;;;;;;;0.25;0.25;;;;;;;;;;5054105;28;20025;-82
2022/09/19 07:30:22;;;;;;;0.05;0.03;;;;;;;;;;5054142;28;20078;-82
2022/09/19 07:32:47;;;;;;;0.80;0.30;;;;;;;;;;5055117;28;20021;-82
2022/09/19 07:35:12;;;;;;;0.63;0.40;;;;;;;;;;5055117;28;20483;-82
2022/09/19 07:37:38;;;;;;;1.02;0.30;;;;;;;;;;5053909;28;20150;-82
2022/09/19 07:40:04;;;;;;;0.55;0.45;;;;;;;;;;5053899;28;20115;-82
2022/09/19 07:42:29;;;;;;;3.75;0.55;;;;;;;;;;5053894;28;20013;-82
2022/09/19 07:44:54;;;;;;;0.10;0.10;;;;;;;;;;5053942;28;20534;-82
2022/09/19 07:47:29;;;;;;;0.77;0.30;;;;;;;;;;5053763;28;20492;-82
2022/09/19 07:49:55;;;;;;;1.08;0.30;;;;;;;;;;5053797;28;20274;-82
2022/09/19 07:52:22;;;;;;;0.35;0.25;;;;;;;;;;5053594;28;20465;-82
2022/09/19 07:54:47;;;;;;;0.10;0.10;;;;;;;;;;5053487;28;20480;-83
2022/09/19 07:57:12;;;;;;;0.35;0.35;;;;;;;;;;5053335;28;20104;-82
2022/09/19 07:59:39;;;;;;;0.83;0.40;;;;;;;;;;5053894;28;20013;-82
2022/09/19 08:02:07;;;;;;;7.32;0.95;;;;;;;;;;5053539;28;20774;-82
2022/09/19 08:04:32;;;;;;;0.20;0.20;;;;;;;;;;5054601;28;20051;-82
2022/09/19 08:06:57;;;;;;;1.85;0.55;;;;;;;;;;5053309;28;20111;-82
2022/09/19 08:09:23;;;;;;;5.00;0.30;;;;;;;;;;5054174;28;20021;-82
2022/09/19 08:11:48;;;;;;;0.30;0.30;;;;;;;;;;5053140;28;20396;-82
2022/09/19 08:14:13;;;;;;;0.97;0.47;;;;;;;;;;5053195;28;20020;-82
2022/09/19 08:16:39;;;;;;;0.85;0.65;;;;;;;;;;5053070;28;20047;-82
2022/09/19 08:19:05;;;;;;;1.95;0.57;;;;;;;;;;5054337;28;20013;-82
2022/09/19 08:21:31;;;;;;;0.20;0.20;;;;;;;;;;5053006;28;20375;-82
2022/09/19 08:23:56;;;;;;;0.20;0.20;;;;;;;;;;5053187;28;20493;-82
2022/09/19 08:26:21;;;;;;;2.23;1.40;;;;;;;;;;5053074;28;20071;-82
2022/09/19 08:28:50;;;;;;;0.33;0.30;;;;;;;;;;5053097;28;20252;-82
2022/09/19 08:31:15;;;;;;;0.32;0.32;;;;;;;;;;5052920;28;20017;-82
2022/09/19 08:33:41;;;;;;;1.60;0.83;;;;;;;;;;5053038;28;20017;-82
2022/09/19 08:36:07;;;;;;;1.63;0.93;;;;;;;;;;5052373;28;20814;-83
2022/09/19 08:38:32;;;;;;;2.08;0.20;;;;;;;;;;5054048;28;20028;-83
2022/09/19 08:40:57;;;;;;;0.50;0.50;;;;;;;;;;5052607;28;20029;-82
2022/09/19 08:43:22;;;;;;;0.87;0.50;;;;;;;;;;5054145;28;20334;-82
2022/09/19 08:46:06;;;;;;;0.83;0.80;;;;;;;;;;5052512;28;20021;-82
2022/09/19 08:48:37;;;;;;;0.20;0.20;;;;;;;;;;5052637;28;20024;-83
2022/09/19 08:51:41;;;;;;;0.38;0.38;;;;;;;;;;5052534;28;20100;-82
2022/09/19 08:54:13;;;;;;;0.30;0.30;;;;;;;;;;5051844;28;20025;-82
2022/09/19 08:56:39;;;;;;;0.30;0.30;;;;;;;;;;5034565;28;20025;-82
2022/09/19 08:59:10;;;;;;;0.52;0.50;;;;;;;;;;5042248;28;20036;-83
2022/09/19 09:01:36;;;;;;;0.38;0.38;;;;;;;;;;5052865;28;20154;-83
2022/09/19 09:04:07;;;;;;;0.85;0.40;;;;;;;;;;5052011;28;20079;-82
2022/09/19 09:06:32;;;;;;;2.55;0.32;;;;;;;;;;5052215;28;20123;-82
2022/09/19 09:09:10;;;;;;;0.32;0.32;;;;;;;;;;5052296;28;20112;-82
2022/09/19 09:11:53;;;;;;;0.30;0.30;;;;;;;;;;5053720;28;20024;-83
2022/09/19 09:14:25;;;;;;;0.28;0.28;;;;;;;;;;5052304;28;20260;-83
2022/09/19 09:16:53;;;;;;;2.17;0.38;;;;;;;;;;5051955;28;20025;-83
2022/09/19 09:19:38;;;;;;;0.70;0.30;;;;;;;;;;5051877;28;20028;-82
2022/09/19 09:22:21;;;;;;;0.55;0.50;;;;;;;;;;5051716;28;20112;-82
2022/09/19 09:24:58;;;;;;;0.40;0.35;;;;;;;;;;5051927;28;20108;-82
2022/09/19 09:27:26;;;;;;;0.40;0.40;;;;;;;;;;5052313;28;20020;-83
2022/09/19 09:29:58;;;;;;;0.30;0.30;;;;;;;;;;5053144;28;20096;-83
2022/09/19 09:32:32;;;;;;;0.20;0.20;;;;;;;;;;5051684;28;20017;-82
2022/09/19 09:35:29;;;;;;;0.20;0.20;;;;;;;;;;5051715;28;20523;-82
2022/09/19 09:38:01;;;;;;;1.13;0.43;;;;;;;;;;5051131;28;20029;-82
2022/09/19 09:43:44;;;;;;;0.22;0.20;;;;;;;;;;5053037;28;20040;-83
2022/09/19 09:46:11;;;;;;;0.13;0.13;;;;;;;;;;5051472;28;20082;-83
2022/09/19 09:48:38;;;;;;;0.20;0.20;;;;;;;;;;5051089;28;20017;-82
2022/09/19 09:51:28;;;;;;;0.63;0.63;;;;;;;;;;5052636;28;20020;-82
2022/09/19 09:54:06;;;;;;;0.35;0.35;;;;;;;;;;5051427;28;20096;-83
2022/09/19 09:56:58;;;;;;;0.20;0.20;;;;;;;;;;5051263;28;20034;-82
2022/09/19 10:05:11;;;;;;;0.25;0.20;;;;;;;;;;5052425;28;20063;-83
2022/09/19 10:07:43;;;;;;;2.40;0.30;;;;;;;;;;5052374;28;20055;-83
2022/09/19 10:10:13;;;;;;;0.28;0.28;;;;;;;;;;5052762;28;20021;-83
2022/09/19 10:12:44;;;;;;;0.20;0.20;;;;;;;;;;5051308;28;20025;-82
2022/09/19 10:15:14;;;;;;;0.30;0.20;;;;;;;;;;5051567;28;20472;-82
2022/09/19 10:17:42;;;;;;;0.10;0.10;;;;;;;;;;5053096;28;20035;-82
2022/09/19 10:20:15;;;;;;;0.45;0.40;;;;;;;;;;5051101;28;20027;-82
2022/09/19 10:22:41;;;;;;;0.30;0.22;;;;;;;;;;5051068;28;20082;-82
2022/09/19 10:25:21;;;;;;;0.20;0.20;;;;;;;;;;5052839;28;20017;-82
2022/09/19 10:27:49;;;;;;;0.20;0.20;;;;;;;;;;5051289;28;20469;-83
2022/09/19 10:30:22;;;;;;;;;;;;;;;;;;5051479;28;20397;-82
2022/09/19 10:32:47;;;;;;;0.10;0.10;;;;;;;;;;5050965;28;19958;-83
2022/09/19 10:35:31;;;;;;;0.22;0.22;;;;;;;;;;5050943;28;20037;-81
2022/09/19 10:38:01;;;;;;;0.17;0.17;;;;;;;;;;5052287;28;20025;-83
2022/09/19 10:40:28;;;;;;;0.20;0.20;;;;;;;;;;5051916;28;20028;-84
2022/09/19 10:42:54;;;;;;;0.30;0.30;;;;;;;;;;5051079;28;20074;-84
2022/09/19 10:45:25;;;;;;;1.17;0.40;;;;;;;;;;5051975;28;20170;-84
2022/09/19 10:48:13;;;;;;;0.45;0.28;;;;;;;;;;5051054;28;20075;-84
2022/09/19 10:50:45;;;;;;;0.40;0.30;;;;;;;;;;5046712;28;20039;-84
2022/09/19 10:53:16;;;;;;;0.50;0.50;;;;;;;;;;5050856;28;20431;-84
2022/09/19 10:55:47;;;;;;;0.50;0.30;;;;;;;;;;5050638;28;20039;-83
2022/09/19 10:58:22;;;;;;;0.10;0.10;;;;;;;;;;5053452;28;20476;-83
2022/09/19 11:00:56;;;;;;;0.10;0.10;;;;;;;;;;5058339;28;20021;-83
2022/09/19 11:03:23;;;;;;;2.22;0.43;;;;;;;;;;5058518;28;20049;-85
2022/09/19 11:06:08;;;;;;;0.40;0.40;;;;;;;;;;5058476;28;20033;-84
2022/09/19 11:08:41;;;;;;;0.28;0.28;;;;;;;;;;5057717;28;20396;-84
2022/09/19 11:11:23;;;;;;;0.20;0.20;;;;;;;;;;5056006;28;20468;-85
2022/09/19 11:14:06;;;;;;;0.73;0.40;;;;;;;;;;5055528;28;20044;-83
2022/09/19 11:16:37;;;;;;;1.08;0.30;;;;;;;;;;5054367;28;20488;-84
2022/09/19 11:19:26;;;;;;;0.65;0.30;;;;;;;;;;5055246;28;20035;-84
2022/09/19 11:22:07;;;;;;;0.20;0.20;;;;;;;;;;5056275;28;20028;-83
2022/09/19 11:24:41;;;;;;;2.05;0.43;;;;;;;;;;5054401;28;20027;-83
2022/09/19 11:27:19;;;;;;;0.63;0.60;;;;;;;;;;5054208;28;20521;-84
2022/09/19 11:29:56;;;;;;;0.20;0.20;;;;;;;;;;5055950;28;20052;-84
2022/09/19 11:32:21;;;;;;;0.20;0.20;;;;;;;;;;5054279;28;20024;-84
2022/09/19 11:35:04;;;;;;;0.23;0.17;;;;;;;;;;5055336;28;20035;-84
2022/09/19 11:37:41;;;;;;;3.22;0.50;;;;;;;;;;5054662;28;20029;-84
2022/09/19 11:40:22;;;;;;;0.95;0.40;;;;;;;;;;5055425;28;20021;-83
2022/09/19 11:43:07;;;;;;;1.08;0.50;;;;;;;;;;5054177;28;20021;-83
2022/09/19 11:46:03;;;;;;;0.65;0.15;;;;;;;;;;5055229;28;20112;-84
2022/09/19 11:48:44;;;;;;;0.47;0.30;;;;;;;;;;5049272;28;20118;-84
2022/09/19 11:51:19;;;;;;;0.47;0.38;;;;;;;;;;5053774;28;20020;-83
2022/09/19 11:54:00;;;;;;;0.50;0.30;;;;;;;;;;5055140;28;20123;-84
2022/09/19 11:56:38;;;;;;;0.50;0.28;;;;;;;;;;5055129;28;20115;-83
2022/09/19 11:59:06;;;;;;;0.60;0.35;;;;;;;;;;5053823;28;20017;-83
2022/09/19 12:01:50;;;;;;;0.52;0.40;;;;;;;;;;5053833;28;20460;-83
2022/09/19 12:04:27;;;;;;;0.40;0.40;;;;;;;;;;5054699;28;20078;-83
2022/09/19 12:07:04;;;;;;;0.63;0.50;;;;;;;;;;5055251;28;20079;-83
2022/09/19 12:09:43;;;;;;;0.55;0.50;;;;;;;;;;5052857;28;20024;-83
2022/09/19 12:12:11;;;;;;;0.30;0.30;;;;;;;;;;5054316;28;20028;-82
2022/09/19 12:14:55;;;;;;;0.30;0.20;;;;;;;;;;5054206;28;20053;-84
2022/09/19 12:17:42;;;;;;;0.30;0.30;;;;;;;;;;5053262;28;20016;-83
2022/09/19 12:20:13;;;;;;;0.20;0.20;;;;;;;;;;5053270;28;20017;-83
2022/09/19 12:22:43;;;;;;;0.20;0.20;;;;;;;;;;5053345;28;20370;-83
2022/09/19 12:25:18;;;;;;;2.05;0.35;;;;;;;;;;5053089;28;20075;-83
2022/09/19 12:27:51;;;;;;;0.50;0.22;;;;;;;;;;5053330;28;20049;-83
2022/09/19 12:30:18;;;;;;;0.32;0.32;;;;;;;;;;5054574;28;20504;-83
2022/09/19 12:33:05;;;;;;;4.43;0.82;;;;;;;;;;5052785;28;20021;-83
2022/09/19 12:35:34;;;;;;;4.70;0.43;;;;;;;;;;5052866;28;20025;-84
2022/09/19 12:38:08;;;;;;;0.30;0.30;;;;;;;;;;5052599;28;20496;-83
2022/09/19 12:40:44;;;;;;;0.63;0.63;;;;;;;;;;5052826;28;20025;-83
2022/09/19 12:43:10;;;;;;;1.15;0.77;;;;;;;;;;5054363;28;20018;-83
2022/09/19 12:45:39;;;;;;;0.75;0.30;;;;;;;;;;5052838;28;20021;-84
2022/09/19 12:48:22;;;;;;;0.30;0.30;;;;;;;;;;5052697;28;20021;-83
2022/09/19 12:50:49;;;;;;;1.48;1.08;;;;;;;;;;5052711;28;20021;-84
2022/09/19 12:53:14;;;;;;;0.40;0.30;;;;;;;;;;5053929;28;20095;-83
2022/09/19 12:55:51;;;;;;;0.83;0.43;;;;;;;;;;5053588;28;20112;-83
2022/09/19 12:58:23;;;;;;;0.40;0.40;;;;;;;;;;5052623;28;20032;-83
2022/09/19 13:00:49;;;;;;;0.25;0.25;;;;;;;;;;5052547;28;20550;-82
2022/09/19 13:03:35;;;;;;;0.40;0.40;;;;;;;;;;5052688;28;20466;-83
2022/09/19 13:06:21;;;;;;;1.13;0.30;;;;;;;;;;5053734;28;20041;-83
2022/09/19 13:08:52;;;;;;;1.92;1.17;;;;;;;;;;5052364;28;20017;-83
2022/09/19 13:11:23;;;;;;;0.40;0.40;;;;;;;;;;5052287;28;20094;-83
2022/09/19 13:13:51;;;;;;;1.17;0.40;;;;;;;;;;5052358;28;20476;-83
2022/09/19 13:16:17;;;;;;;1.88;0.50;;;;;;;;;;5052115;28;20055;-83
2022/09/19 13:24:18;;;;;;;2.55;0.77;;;;;;;;;;5053496;28;20039;-83
2022/09/19 13:26:51;;;;;;;0.67;0.37;;;;;;;;;;5052679;28;20021;-83
2022/09/19 13:29:29;;;;;;;0.38;0.30;;;;;;;;;;5053711;28;20257;-83
2022/09/19 13:31:57;;;;;;;0.75;0.50;;;;;;;;;;5053284;28;20412;-82
2022/09/19 13:34:39;;;;;;;1.65;0.38;;;;;;;;;;5053033;28;20029;-82
2022/09/19 13:37:23;;;;;;;1.20;0.57;;;;;;;;;;5051668;28;20029;-83
2022/09/19 13:39:54;;;;;;;15.35;0.47;;;;;;;;;;5052960;28;20103;-82
2022/09/19 13:42:24;;;;;;;0.30;0.30;;;;;;;;;;5051498;28;20013;-82
2022/09/19 13:44:58;;;;;;;0.22;0.22;;;;;;;;;;5051567;28;20468;-83
2022/09/19 13:47:28;;;;;;;0.20;0.20;;;;;;;;;;5052030;28;20024;-82
2022/09/19 13:50:27;;;;;;;0.40;0.40;;;;;;;;;;5051758;28;20025;-82
2022/09/19 13:53:02;;;;;;;0.73;0.30;;;;;;;;;;5040443;28;20025;-83
2022/09/19 13:55:30;;;;;;;1.45;0.47;;;;;;;;;;5051809;28;20033;-82
2022/09/19 13:58:15;;;;;;;0.28;0.28;;;;;;;;;;5051540;28;20048;-82
2022/09/19 14:00:43;;;;;;;0.30;0.30;;;;;;;;;;5051486;28;20025;-82
2022/09/19 14:03:20;;;;;;;0.30;0.30;;;;;;;;;;5051163;28;20480;-82
2022/09/19 14:05:45;;;;;;;0.25;0.25;;;;;;;;;;5051068;28;20040;-83
2022/09/19 14:08:30;;;;;;;3.40;1.50;;;;;;;;;;5052821;28;20017;-82
2022/09/19 14:10:56;;;;;;;0.30;0.30;;;;;;;;;;5051306;28;20032;-83
2022/09/19 14:13:26;;;;;;;0.45;0.45;;;;;;;;;;5051108;28;20025;-83
2022/09/19 14:16:05;;;;;;;0.50;0.30;;;;;;;;;;5051040;28;20060;-83
2022/09/19 14:18:36;;;;;;;0.52;0.20;;;;;;;;;;5051057;28;20024;-83
2022/09/19 14:21:03;;;;;;;2.42;0.50;;;;;;;;;;5051150;28;20610;-82
2022/09/19 14:23:36;;;;;;;1.75;0.40;;;;;;;;;;5051010;28;20396;-82
2022/09/19 14:26:14;;;;;;;0.65;0.40;;;;;;;;;;5050882;28;20115;-83
2022/09/19 14:28:42;;;;;;;1.85;0.40;;;;;;;;;;5050979;28;20013;-83
2022/09/19 14:31:07;;;;;;;0.38;0.38;;;;;;;;;;5052279;28;20083;-82
2022/09/19 14:33:36;;;;;;;0.33;0.33;;;;;;;;;;5053853;28;20485;-83
2022/09/19 14:36:10;;;;;;;0.55;0.55;;;;;;;;;;5056333;28;20033;-82
2022/09/19 14:38:51;;;;;;;5.20;0.68;;;;;;;;;;5055083;28;20396;-83
2022/09/19 14:41:23;;;;;;;1.70;0.35;;;;;;;;;;5055095;28;20542;-83
2022/09/19 14:44:14;;;;;;;0.30;0.30;;;;;;;;;;5055067;28;20025;-83
2022/09/19 14:46:42;;;;;;;1.95;0.60;;;;;;;;;;5047016;28;20125;-82
2022/09/19 14:49:27;;;;;;;0.55;0.32;;;;;;;;;;5056128;28;20079;-83
2022/09/19 14:51:52;;;;;;;4.68;0.80;;;;;;;;;;5056270;28;20025;-83
2022/09/19 14:54:24;;;;;;;1.43;0.90;;;;;;;;;;5054861;28;20575;-82
2022/09/19 14:57:02;;;;;;;2.47;1.65;;;;;;;;;;5054539;28;20817;-83
2022/09/19 14:59:30;;;;;;;0.57;0.57;;;;;;;;;;5055802;28;20067;-83
2022/09/19 15:02:07;;;;;;;2.22;0.30;;;;;;;;;;5055900;28;20480;-83
2022/09/19 15:04:33;;;;;;;2.15;0.52;;;;;;;;;;5054414;28;20045;-83
2022/09/19 15:06:58;;;;;;;0.63;0.57;;;;;;;;;;5054589;28;20029;-83
2022/09/19 15:09:28;;;;;;;0.57;0.57;;;;;;;;;;5054566;28;20027;-82
2022/09/19 15:11:55;;;;;;;0.47;0.47;;;;;;;;;;5055652;28;20012;-83
2022/09/19 15:14:22;;;;;;;1.23;0.30;;;;;;;;;;5054261;28;20025;-83
2022/09/19 15:16:50;;;;;;;2.38;0.95;;;;;;;;;;5054427;28;20029;-83
2022/09/19 15:19:16;;;;;;;;;;;;;;;;;;5054650;28;20017;-83
2022/09/19 15:21:41;;;;;;;0.65;0.57;;;;;;;;;;5054424;28;19911;-83
2022/09/19 15:24:07;;;;;;;1.65;0.43;;;;;;;;;;5053978;28;20469;-82
2022/09/19 15:26:36;;;;;;;0.40;0.32;;;;;;;;;;5054096;28;20025;-84